Time;durP1;ratioP1;P1;durP2;ratioP2;P2;SDS_P1;SDS_P2;PMS_P1;PMS_P2;Temp;Humidity;BMP_temperature;BMP_pressure;BME280_temperature;BME280_humidity;BME280_pressure;Samples;Min_cycle;Max_cycle;Signal;HPM_P1;HPM_P2
2021/03/24 00:00:37;;;;;;;34.80;19.03;;;;;;;2.48;86.82;96995.34;5016746;28;20483;-87
2021/03/24 00:03:04;;;;;;;32.60;18.40;;;;;;;2.51;87.05;96997.06;5018213;28;20606;-90
2021/03/24 00:05:33;;;;;;;35.47;19.80;;;;;;;2.46;86.82;96989.78;5017840;28;20505;-90
2021/03/24 00:07:59;;;;;;;33.93;18.90;;;;;;;2.43;87.04;96996.78;5018177;28;20518;-90
2021/03/24 00:10:27;;;;;;;37.03;18.90;;;;;;;2.37;87.15;96987.28;5017728;28;20463;-88
2021/03/24 00:12:55;;;;;;;34.67;18.90;;;;;;;2.35;87.36;96989.69;5017007;28;20890;-84
2021/03/24 00:15:22;;;;;;;34.00;19.07;;;;;;;2.34;87.60;96986.28;5018774;28;20452;-86
2021/03/24 00:17:49;;;;;;;33.10;18.93;;;;;;;2.38;87.34;96988.75;5019673;28;20443;-86
2021/03/24 00:20:17;;;;;;;33.60;20.90;;;;;;;2.47;87.47;96984.00;5020205;28;20551;-87
2021/03/24 00:22:43;;;;;;;38.13;19.70;;;;;;;2.44;86.90;96986.88;5020327;28;20546;-87
2021/03/24 00:25:14;;;;;;;33.63;18.70;;;;;;;2.36;87.32;96978.53;5020309;28;20428;-89
2021/03/24 00:27:40;;;;;;;38.80;19.10;;;;;;;2.35;87.24;96985.06;5023553;28;20759;-87
2021/03/24 00:30:10;;;;;;;27.97;18.47;;;;;;;2.33;87.50;96989.41;5020667;28;20448;-88
2021/03/24 00:32:36;;;;;;;33.63;19.10;;;;;;;2.33;87.76;96978.75;5021266;28;20432;-90
2021/03/24 00:35:02;;;;;;;31.57;18.50;;;;;;;2.27;88.42;96983.28;5020761;28;20523;-88
2021/03/24 00:37:28;;;;;;;35.67;19.97;;;;;;;2.27;88.21;96983.28;5019886;28;20917;-87
2021/03/24 00:39:54;;;;;;;36.40;18.90;;;;;;;2.22;88.75;96983.97;5019745;28;20500;-87
2021/03/24 00:42:20;;;;;;;35.10;20.50;;;;;;;2.18;88.67;96978.84;5019261;28;20480;-87
2021/03/24 00:44:46;;;;;;;33.83;18.67;;;;;;;2.19;88.30;96980.31;5019521;28;20436;-88
2021/03/24 00:47:13;;;;;;;37.10;19.60;;;;;;;2.17;88.78;96972.06;5019889;28;20855;-88
2021/03/24 00:49:39;;;;;;;34.90;19.97;;;;;;;2.15;88.36;96971.81;5019871;28;20456;-87
2021/03/24 00:52:06;;;;;;;35.20;20.03;;;;;;;2.13;88.71;96974.91;5019562;28;20493;-88
2021/03/24 00:54:32;;;;;;;30.07;18.27;;;;;;;2.08;89.03;96977.53;5020820;28;20448;-87
2021/03/24 00:56:58;;;;;;;44.33;18.63;;;;;;;2.07;89.26;96973.41;5019607;28;20827;-87
2021/03/24 00:59:25;;;;;;;36.67;18.90;;;;;;;2.02;89.29;96972.16;5019422;28;20494;-87
2021/03/24 01:01:51;;;;;;;38.87;18.47;;;;;;;2.01;89.81;96970.69;5020324;28;20417;-86
2021/03/24 01:04:18;;;;;;;31.80;19.10;;;;;;;2.03;89.31;96973.63;5019450;28;20975;-87
2021/03/24 01:06:44;;;;;;;35.30;20.30;;;;;;;2.01;89.16;96977.94;5022314;28;20516;-86
2021/03/24 01:09:10;;;;;;;26.83;18.23;;;;;;;1.96;89.78;96963.38;5021794;28;20846;-87
2021/03/24 01:11:37;;;;;;;35.80;20.57;;;;;;;1.95;90.01;96964.56;5021698;28;20523;-87
2021/03/24 01:14:03;;;;;;;30.73;18.07;;;;;;;1.91;90.04;96961.38;5021202;28;20451;-86
2021/03/24 01:16:29;;;;;;;42.80;21.10;;;;;;;1.89;90.02;96968.38;5019834;28;20512;-86
2021/03/24 01:18:55;;;;;;;36.40;20.30;;;;;;;1.84;90.50;96961.06;5018853;28;20865;-87
2021/03/24 01:21:22;;;;;;;36.50;19.43;;;;;;;1.80;90.56;96958.59;5020106;28;20508;-86
2021/03/24 01:23:49;;;;;;;30.73;18.63;;;;;;;1.74;91.36;96957.81;5019184;28;20881;-87
2021/03/24 01:26:15;;;;;;;34.00;19.77;;;;;;;1.78;91.59;96955.69;5018137;28;20520;-88
2021/03/24 01:28:41;;;;;;;31.30;18.87;;;;;;;1.75;91.35;96947.91;5018273;28;20550;-85
2021/03/24 01:31:08;;;;;;;30.60;18.80;;;;;;;1.72;91.96;96954.88;5022532;28;20490;-86
2021/03/24 01:33:34;;;;;;;27.73;18.50;;;;;;;1.72;91.48;96949.56;5039245;28;20456;-87
2021/03/24 01:36:00;;;;;;;30.70;19.70;;;;;;;1.69;92.03;96952.44;5039827;28;20500;-87
2021/03/24 01:38:27;;;;;;;36.00;19.43;;;;;;;1.72;92.10;96946.19;5036658;28;20532;-85
2021/03/24 01:40:56;;;;;;;36.73;20.03;;;;;;;1.75;92.29;96947.91;5035090;28;20500;-88
2021/03/24 01:43:28;;;;;;;36.50;20.30;;;;;;;1.72;91.80;96938.19;5039921;28;20491;-89
2021/03/24 01:46:24;;;;;;;37.13;21.17;;;;;;;1.71;92.34;96948.09;5037578;28;20516;-81
2021/03/24 01:48:53;;;;;;;30.37;17.70;;;;;;;1.70;92.03;96946.63;5033499;28;20919;-84
2021/03/24 01:51:21;;;;;;;36.50;21.10;;;;;;;1.71;92.43;96934.81;5020532;28;20480;-84
2021/03/24 01:53:49;;;;;;;36.23;19.70;;;;;;;1.68;92.29;96933.06;5019901;28;20444;-85
2021/03/24 01:56:17;;;;;;;39.40;21.70;;;;;;;1.65;92.22;96935.94;5019696;28;20443;-84
2021/03/24 01:58:43;;;;;;;36.10;20.13;;;;;;;1.58;92.53;96931.75;5018042;28;20478;-85
2021/03/24 02:01:14;;;;;;;32.63;18.17;;;;;;;1.64;92.63;96927.22;5017676;28;20464;-84
2021/03/24 02:03:40;;;;;;;30.80;21.30;;;;;;;1.63;92.77;96933.72;5018271;28;20435;-85
2021/03/24 02:06:11;;;;;;;33.47;20.17;;;;;;;1.59;92.62;96941.19;5017597;28;20789;-84
2021/03/24 02:08:42;;;;;;;32.07;19.00;;;;;;;1.60;93.12;96930.06;5018201;28;20506;-84
2021/03/24 02:11:15;;;;;;;31.30;18.57;;;;;;;1.61;93.06;96936.13;5018293;28;20491;-84
2021/03/24 02:13:47;;;;;;;34.17;18.70;;;;;;;1.62;92.94;96934.94;5018220;28;20519;-84
2021/03/24 02:16:20;;;;;;;30.30;17.27;;;;;;;1.59;93.11;96936.59;5017949;28;20432;-84
2021/03/24 02:18:49;;;;;;;36.00;19.70;;;;;;;1.63;93.33;96944.38;5019080;28;20448;-85
2021/03/24 02:21:20;;;;;;;33.70;19.43;;;;;;;1.59;93.08;96938.53;5019597;28;20444;-85
2021/03/24 02:23:57;;;;;;;29.70;17.43;;;;;;;1.61;92.90;96933.47;5020107;28;20467;-85
2021/03/24 02:26:31;;;;;;;39.60;20.47;;;;;;;1.58;93.10;96934.41;5028721;28;20432;-84
2021/03/24 02:29:01;;;;;;;34.27;19.57;;;;;;;1.54;93.28;96928.53;5036997;28;20567;-84
2021/03/24 02:31:29;;;;;;;34.73;17.67;;;;;;;1.51;93.72;96932.13;5018109;28;20479;-84
2021/03/24 02:34:00;;;;;;;39.00;20.23;;;;;;;1.49;93.52;96929.94;5017538;28;20932;-85
2021/03/24 02:36:27;;;;;;;44.13;21.40;;;;;;;1.48;93.59;96919.78;5017422;28;20940;-85
2021/03/24 02:38:58;;;;;;;32.53;19.27;;;;;;;1.44;93.61;96921.91;5017517;28;20987;-85
2021/03/24 02:41:25;;;;;;;38.00;21.13;;;;;;;1.45;93.46;96918.03;5017169;28;20503;-84
2021/03/24 02:43:52;;;;;;;36.93;21.40;;;;;;;1.45;93.61;96915.38;5017379;28;20515;-85
2021/03/24 02:46:20;;;;;;;32.33;19.57;;;;;;;1.49;93.43;96921.25;5017514;28;20498;-84
2021/03/24 02:48:46;;;;;;;36.17;20.17;;;;;;;1.46;93.36;96925.56;5017259;28;20869;-84
2021/03/24 02:51:19;;;;;;;36.33;21.03;;;;;;;1.43;93.33;96918.53;5017518;28;20494;-85
2021/03/24 02:53:46;;;;;;;41.17;22.00;;;;;;;1.42;93.82;96921.63;5019219;28;20439;-84
2021/03/24 02:56:12;;;;;;;36.60;19.97;;;;;;;1.44;93.44;96927.22;5017401;28;20452;-83
2021/03/24 02:58:39;;;;;;;37.20;19.00;;;;;;;1.38;93.60;96924.47;5019576;28;20558;-83
2021/03/24 03:01:12;;;;;;;36.03;20.43;;;;;;;1.35;94.00;96927.34;5020392;28;20494;-83
2021/03/24 03:03:43;;;;;;;38.60;21.40;;;;;;;1.32;93.68;96926.34;5019899;28;20431;-83
2021/03/24 03:06:12;;;;;;;35.40;20.03;;;;;;;1.30;93.88;96928.75;5019562;28;20433;-83
2021/03/24 03:08:41;;;;;;;34.53;19.60;;;;;;;1.32;94.16;96925.59;5018771;28;20545;-82
2021/03/24 03:11:14;;;;;;;37.87;20.63;;;;;;;1.23;94.13;96929.13;5019399;28;20849;-83
2021/03/24 03:13:51;;;;;;;39.03;21.03;;;;;;;1.22;94.06;96921.63;5020563;28;20433;-82
2021/03/24 03:16:22;;;;;;;37.93;19.37;;;;;;;1.26;93.90;96927.47;5019799;28;20568;-83
2021/03/24 03:18:53;;;;;;;34.63;19.37;;;;;;;1.20;94.37;96922.09;5019884;28;20464;-82
2021/03/24 03:21:36;;;;;;;27.47;17.70;;;;;;;1.12;94.95;96914.97;5020220;28;20916;-83
2021/03/24 03:24:04;;;;;;;37.30;19.30;;;;;;;1.08;95.17;96921.22;5000417;28;20426;-82
2021/03/24 03:26:32;;;;;;;33.43;19.70;;;;;;;1.08;95.46;96918.56;5001498;28;20441;-82
2021/03/24 03:29:06;;;;;;;38.80;18.73;;;;;;;1.12;94.98;96925.59;5000215;28;20553;-82
2021/03/24 03:31:37;;;;;;;41.10;20.53;;;;;;;1.13;95.30;96929.72;5001012;28;20479;-83
2021/03/24 03:34:06;;;;;;;33.67;19.10;;;;;;;1.08;95.62;96921.22;5000986;28;20966;-82
2021/03/24 03:36:34;;;;;;;32.97;18.47;;;;;;;1.08;95.29;96921.22;5000430;28;20532;-82
2021/03/24 03:39:02;;;;;;;36.70;20.63;;;;;;;1.09;95.15;96929.91;4999994;28;20467;-82
2021/03/24 03:41:31;;;;;;;35.60;19.93;;;;;;;1.03;95.00;96927.16;5002723;28;20524;-86
2021/03/24 03:43:59;;;;;;;37.03;19.53;;;;;;;0.98;95.61;96925.16;5002281;28;20441;-82
2021/03/24 03:46:29;;;;;;;37.90;20.60;;;;;;;0.97;95.28;96921.03;5000165;28;20523;-83
2021/03/24 03:48:55;;;;;;;36.17;20.50;;;;;;;0.98;95.82;96919.13;5000342;28;20471;-82
2021/03/24 03:51:31;;;;;;;34.87;20.37;;;;;;;1.01;95.50;96912.88;5003480;28;20471;-83
2021/03/24 03:54:05;;;;;;;37.57;21.00;;;;;;;1.06;95.72;96912.97;5004204;28;20519;-82
2021/03/24 03:56:36;;;;;;;33.40;21.43;;;;;;;1.00;95.71;96919.41;5001378;28;20783;-85
2021/03/24 03:59:10;;;;;;;36.10;20.40;;;;;;;0.98;95.74;96916.47;4999636;28;20585;-85
2021/03/24 04:01:39;;;;;;;33.90;18.63;;;;;;;1.00;95.91;96909.50;4999902;28;20769;-86
2021/03/24 04:04:11;;;;;;;32.73;18.60;;;;;;;1.01;95.83;96924.25;4999907;28;20447;-85
2021/03/24 04:06:44;;;;;;;30.13;18.57;;;;;;;1.05;95.87;96900.88;4999807;28;20437;-85
2021/03/24 04:09:10;;;;;;;34.63;19.33;;;;;;;1.08;95.41;96910.59;5022369;28;20504;-83
2021/03/24 04:11:42;;;;;;;35.67;19.27;;;;;;;1.07;95.08;96903.06;5024008;28;20999;-83
2021/03/24 04:14:09;;;;;;;33.10;19.00;;;;;;;1.05;94.91;96906.19;5023859;28;20533;-83
2021/03/24 04:16:38;;;;;;;40.07;21.03;;;;;;;1.02;95.36;96909.78;5023178;28;20531;-82
2021/03/24 04:19:06;;;;;;;36.87;18.40;;;;;;;1.04;95.01;96904.72;5022901;28;20482;-83
2021/03/24 04:21:37;;;;;;;32.17;19.77;;;;;;;1.01;94.95;96908.31;5024023;28;20448;-82
2021/03/24 04:24:08;;;;;;;34.27;19.50;;;;;;;0.96;95.25;96906.31;5023861;28;20893;-82
2021/03/24 04:26:38;;;;;;;33.00;18.10;;;;;;;0.92;95.25;96908.41;5025172;28;20424;-82
2021/03/24 04:29:08;;;;;;;29.83;18.30;;;;;;;0.94;95.58;96900.00;5024236;28;20521;-85
2021/03/24 04:31:38;;;;;;;28.63;17.87;;;;;;;0.93;95.55;96909.16;5020711;28;20450;-82
2021/03/24 04:34:05;;;;;;;35.20;18.63;;;;;;;0.89;95.60;96914.66;5023308;28;20431;-82
2021/03/24 04:36:35;;;;;;;37.97;19.47;;;;;;;0.88;95.86;96907.88;5022653;28;20536;-82
2021/03/24 04:39:09;;;;;;;32.13;19.40;;;;;;;0.91;95.64;96906.94;5022289;28;20555;-82
2021/03/24 04:41:40;;;;;;;32.93;19.40;;;;;;;0.86;95.61;96912.94;5022101;28;20509;-83
2021/03/24 04:44:13;;;;;;;30.37;17.47;;;;;;;0.81;95.72;96910.94;5022039;28;20441;-82
2021/03/24 04:46:42;;;;;;;37.20;18.83;;;;;;;0.87;96.24;96908.34;5021927;28;20435;-82
2021/03/24 04:49:13;;;;;;;39.03;20.23;;;;;;;0.80;95.85;96914.78;5021783;28;20479;-82
2021/03/24 04:51:42;;;;;;;31.27;18.77;;;;;;;0.83;96.17;96915.75;5022668;28;20554;-82
2021/03/24 04:54:16;;;;;;;37.40;18.83;;;;;;;0.80;95.78;96922.75;5019861;28;20448;-86
2021/03/24 04:56:47;;;;;;;35.37;17.53;;;;;;;0.70;96.22;96920.63;5019518;28;20477;-85
2021/03/24 04:59:16;;;;;;;31.53;18.60;;;;;;;0.62;96.63;96920.28;5020226;28;20468;-85
2021/03/24 05:01:45;;;;;;;35.87;20.40;;;;;;;0.69;96.74;96919.91;5019041;28;20441;-85
2021/03/24 05:04:18;;;;;;;38.17;22.00;;;;;;;0.74;96.33;96921.94;5020899;28;20471;-84
2021/03/24 05:06:51;;;;;;;30.77;18.50;;;;;;;0.73;96.13;96923.09;5020138;28;20506;-85
2021/03/24 05:09:18;;;;;;;47.77;21.53;;;;;;;0.74;96.13;96924.59;5019291;28;20508;-85
2021/03/24 05:11:49;;;;;;;36.50;17.57;;;;;;;0.68;96.56;96925.69;5018559;28;20506;-85
2021/03/24 05:14:25;;;;;;;34.17;19.23;;;;;;;0.63;96.87;96924.41;5018232;28;20439;-85
2021/03/24 05:17:05;;;;;;;33.83;19.13;;;;;;;0.65;96.57;96914.06;5018953;28;20425;-85
2021/03/24 05:19:31;;;;;;;35.50;19.30;;;;;;;0.69;96.88;96919.91;5019026;28;20975;-85
2021/03/24 05:22:06;;;;;;;32.90;18.90;;;;;;;0.71;96.51;96924.75;5018682;28;20474;-85
2021/03/24 05:24:36;;;;;;;28.50;18.43;;;;;;;0.79;96.53;96934.53;5018325;28;20458;-84
2021/03/24 05:27:11;;;;;;;36.63;19.73;;;;;;;0.84;96.35;96939.22;5018896;28;20475;-85
2021/03/24 05:29:42;;;;;;;33.30;19.70;;;;;;;0.91;96.05;96936.16;5018547;28;20546;-85
2021/03/24 05:32:14;;;;;;;33.63;19.30;;;;;;;1.10;95.85;96930.66;5018406;28;20442;-84
2021/03/24 05:34:41;;;;;;;33.17;18.17;;;;;;;1.31;94.78;96924.16;5019267;28;20464;-82
2021/03/24 05:37:09;;;;;;;38.57;19.70;;;;;;;1.31;93.84;96935.53;5021952;28;20428;-82
2021/03/24 05:39:38;;;;;;;30.40;18.40;;;;;;;1.44;93.19;96930.59;5021392;28;20483;-82
2021/03/24 05:42:18;;;;;;;34.83;19.20;;;;;;;1.74;92.97;96931.22;5022194;28;20830;-82
2021/03/24 05:45:02;;;;;;;30.27;17.60;;;;;;;1.91;91.45;96934.06;5022525;28;20920;-81
2021/03/24 05:47:46;;;;;;;28.23;17.80;;;;;;;2.11;89.80;96944.66;5022851;28;20429;-82
2021/03/24 05:50:29;;;;;;;29.17;16.00;;;;;;;2.46;89.14;96942.59;5021924;28;20503;-82
2021/03/24 05:53:05;;;;;;;27.90;17.17;;;;;;;2.85;87.79;96942.88;5021062;28;20424;-82
2021/03/24 05:55:39;;;;;;;32.53;17.10;;;;;;;2.98;85.21;96955.81;5023255;28;20449;-82
2021/03/24 05:58:20;;;;;;;23.97;15.30;;;;;;;3.40;84.48;96958.50;5023392;28;20454;-82
2021/03/24 06:00:49;;;;;;;27.73;16.67;;;;;;;3.65;82.08;96954.25;5022496;28;20480;-84
2021/03/24 06:03:32;;;;;;;29.10;16.30;;;;;;;4.14;79.97;96967.03;5019305;28;20456;-85
2021/03/24 06:06:21;;;;;;;29.27;17.60;;;;;;;4.41;78.82;96960.31;5017916;28;20433;-86
2021/03/24 06:09:30;;;;;;;22.93;16.17;;;;;;;4.58;77.91;96957.66;5017626;28;20415;-86
2021/03/24 06:12:12;;;;;;;24.80;15.80;;;;;;;4.84;76.04;96963.50;5017592;28;20461;-84
2021/03/24 06:15:14;;;;;;;28.80;15.93;;;;;;;5.04;75.27;96973.97;5019207;28;20441;-83
2021/03/24 06:17:51;;;;;;;27.17;15.70;;;;;;;5.28;75.38;96968.06;5017686;28;20411;-85
2021/03/24 06:20:30;;;;;;;27.77;17.00;;;;;;;5.42;74.36;96971.72;5018224;28;20456;-83
2021/03/24 06:23:18;;;;;;;27.50;16.80;;;;;;;5.56;73.32;96970.69;5017611;28;20424;-84
2021/03/24 06:25:47;;;;;;;25.70;16.47;;;;;;;5.91;72.05;96974.25;5017235;28;20499;-83
2021/03/24 06:28:31;;;;;;;26.10;15.97;;;;;;;6.48;70.11;96964.72;5017759;28;20462;-83
2021/03/24 06:31:26;;;;;;;30.30;16.30;;;;;;;6.56;69.56;96976.34;5019449;28;20471;-84
2021/03/24 06:34:21;;;;;;;29.70;16.83;;;;;;;6.88;68.27;96971.97;5020673;28;20467;-84
2021/03/24 06:37:15;;;;;;;33.43;18.17;;;;;;;7.14;67.42;96971.50;5019814;28;20423;-84
2021/03/24 06:39:56;;;;;;;26.10;16.27;;;;;;;7.25;67.74;96974.09;5019336;28;20443;-83
2021/03/24 06:42:36;;;;;;;26.70;16.70;;;;;;;7.53;66.35;96979.19;5018388;28;20428;-84
2021/03/24 06:45:20;;;;;;;25.90;16.47;;;;;;;7.87;65.70;96977.59;5018309;28;20432;-84
2021/03/24 06:47:51;;;;;;;32.80;17.27;;;;;;;7.89;65.65;96979.78;5017961;28;20405;-84
2021/03/24 06:50:36;;;;;;;28.33;16.90;;;;;;;8.15;64.10;96982.63;5018726;28;20452;-84
2021/03/24 06:53:40;;;;;;;28.10;16.37;;;;;;;8.21;63.88;96993.28;5018730;28;20486;-86
2021/03/24 06:56:51;;;;;;;24.80;17.10;;;;;;;8.52;63.17;96995.38;5018726;28;20468;-84
2021/03/24 06:59:54;;;;;;;29.60;16.70;;;;;;;8.92;62.15;96993.56;5019628;28;20531;-88
2021/03/24 07:02:53;;;;;;;20.67;15.70;;;;;;;9.34;60.31;97002.66;5018275;28;20431;-86
2021/03/24 07:05:31;;;;;;;29.90;18.53;;;;;;;9.35;60.49;96996.78;5016164;28;20453;-88
2021/03/24 07:08:27;;;;;;;25.23;16.93;;;;;;;9.24;61.00;96986.16;5020306;28;20486;-89
2021/03/24 07:11:03;;;;;;;29.17;18.27;;;;;;;9.25;60.81;96998.41;5019828;28;20480;-89
2021/03/24 07:14:05;;;;;;;26.50;16.40;;;;;;;9.72;59.13;96995.84;5019277;28;20436;-88
2021/03/24 07:17:08;;;;;;;29.70;18.47;;;;;;;9.89;59.03;97003.63;4997015;28;20448;-92
2021/03/24 07:20:01;;;;;;;28.07;18.60;;;;;;;10.08;57.99;97004.97;5005835;28;20487;-89
2021/03/24 07:22:55;;;;;;;30.77;18.20;;;;;;;10.13;58.58;97003.41;5020806;28;20959;-91
2021/03/24 07:25:45;;;;;;;27.73;16.30;;;;;;;10.33;57.81;97007.44;5021159;28;20514;-89
2021/03/24 07:28:33;;;;;;;26.83;15.83;;;;;;;10.40;57.86;97012.22;5020707;28;20481;-90
2021/03/24 07:31:24;;;;;;;26.40;16.27;;;;;;;9.90;58.69;97016.59;5018066;28;21095;-89
2021/03/24 07:33:59;;;;;;;22.80;15.20;;;;;;;10.38;57.18;97010.03;5021279;28;20417;-89
2021/03/24 07:37:14;;;;;;;34.13;16.50;;;;;;;10.36;56.83;97009.84;5025393;28;20519;-91
2021/03/24 07:40:02;;;;;;;37.33;17.60;;;;;;;10.43;56.59;97008.47;5036198;28;20528;-92
2021/03/24 07:43:09;;;;;;;29.80;16.20;;;;;;;10.93;55.79;97012.75;5035221;28;20402;-89
2021/03/24 07:45:48;;;;;;;30.93;18.00;;;;;;;11.19;54.87;97020.72;5030549;28;20464;-89
2021/03/24 07:48:32;;;;;;;24.93;15.30;;;;;;;10.96;54.78;97028.66;5022561;28;20531;-90
2021/03/24 07:51:06;;;;;;;30.67;18.23;;;;;;;10.77;55.46;97030.06;5019485;28;20554;-86
2021/03/24 07:53:39;;;;;;;40.73;17.73;;;;;;;11.03;54.60;97029.94;5017491;28;20436;-85
2021/03/24 07:56:19;;;;;;;31.57;17.70;;;;;;;11.14;54.43;97029.69;5018149;28;20424;-86
2021/03/24 07:59:21;;;;;;;31.37;17.33;;;;;;;11.36;54.46;97028.44;5020446;28;20498;-89
2021/03/24 08:01:59;;;;;;;36.93;17.63;;;;;;;11.47;53.95;97028.16;5018147;28;20436;-87
2021/03/24 08:04:38;;;;;;;31.20;18.60;;;;;;;11.32;53.92;97020.66;5017464;28;20420;-86
2021/03/24 08:07:15;;;;;;;39.70;18.60;;;;;;;11.64;53.61;97026.50;5016675;28;20511;-86
2021/03/24 08:09:56;;;;;;;35.10;19.43;;;;;;;11.98;52.57;97020.94;5021194;28;20451;-92
2021/03/24 08:12:41;;;;;;;33.00;16.63;;;;;;;12.09;51.62;97028.03;5023647;28;20515;-91
2021/03/24 08:15:53;;;;;;;;;;;;;;;;;;;;;
2021/03/24 08:18:31;;;;;;;30.17;16.87;;;;;;;11.53;52.50;97013.25;5023130;28;20471;-92
2021/03/24 08:21:05;;;;;;;47.67;20.20;;;;;;;11.47;53.63;97015.38;5022323;28;20423;-91
2021/03/24 08:24:13;;;;;;;27.53;16.90;;;;;;;11.31;53.78;97013.78;5022770;28;20511;-91
2021/03/24 08:26:45;;;;;;;32.37;17.00;;;;;;;10.81;54.89;97016.97;4938605;29;20987;-87
2021/03/24 08:29:19;;;;;;;26.47;17.60;;;;;;;10.55;56.16;97017.78;4938407;29;20516;-87
2021/03/24 08:32:29;;;;;;;28.37;16.87;;;;;;;10.44;56.65;97016.03;4985417;28;21082;-86
2021/03/24 08:35:30;;;;;;;31.50;18.07;;;;;;;10.33;57.41;97012.84;5019482;28;20468;-84
2021/03/24 08:38:32;;;;;;;23.80;16.57;;;;;;;10.10;58.17;97017.94;5023373;28;20434;-85
2021/03/24 08:41:27;;;;;;;38.50;18.33;;;;;;;9.86;59.42;97020.84;5009077;28;20451;-85
2021/03/24 08:44:02;;;;;;;31.17;17.10;;;;;;;10.03;58.67;97021.25;5021486;28;20981;-86
2021/03/24 08:46:34;;;;;;;41.43;20.20;;;;;;;9.98;59.21;97022.81;5021281;28;20511;-84
2021/03/24 08:49:04;;;;;;;39.03;17.87;;;;;;;9.87;59.20;97014.19;5020874;28;20472;-86
2021/03/24 08:51:52;;;;;;;26.57;17.27;;;;;;;9.88;59.83;97021.06;5020577;28;20502;-86
2021/03/24 08:54:58;;;;;;;34.17;18.10;;;;;;;9.81;58.52;97019.69;5021190;28;20435;-87
2021/03/24 08:57:35;;;;;;;26.43;17.70;;;;;;;9.57;58.83;97015.25;4984722;28;20454;-85
2021/03/24 09:00:11;;;;;;;31.90;18.10;;;;;;;9.47;59.35;97008.06;5025474;28;20568;-85
2021/03/24 09:02:53;;;;;;;27.73;17.57;;;;;;;9.45;58.92;97015.94;5024400;28;20459;-86
2021/03/24 09:05:27;;;;;;;30.47;18.93;;;;;;;9.15;60.24;97016.91;5021755;28;20451;-86
2021/03/24 09:08:09;;;;;;;28.73;16.87;;;;;;;9.38;59.90;97009.19;5021119;28;20433;-85
2021/03/24 09:10:46;;;;;;;29.87;17.50;;;;;;;9.46;59.92;97014.72;5021188;28;20436;-85
2021/03/24 09:13:23;;;;;;;28.10;17.60;;;;;;;9.40;59.15;97008.66;5022520;28;20428;-86
2021/03/24 09:16:15;;;;;;;27.83;16.90;;;;;;;9.24;60.19;97010.41;5025480;28;20440;-86
2021/03/24 09:18:49;;;;;;;27.00;15.90;;;;;;;9.34;60.63;97008.78;5023542;28;20469;-86
2021/03/24 09:21:22;;;;;;;24.90;16.23;;;;;;;9.49;60.17;97011.69;5023733;28;20911;-85
2021/03/24 09:24:16;;;;;;;30.27;16.77;;;;;;;9.65;59.68;97007.97;5037000;28;20407;-86
2021/03/24 09:27:20;;;;;;;29.67;15.90;;;;;;;9.66;59.38;97003.31;5023207;28;20425;-86
2021/03/24 09:30:02;;;;;;;28.60;15.03;;;;;;;9.79;59.99;97003.34;5019739;28;20447;-85
2021/03/24 09:32:32;;;;;;;27.97;18.23;;;;;;;9.91;59.98;97014.63;5022284;28;20479;-86
2021/03/24 09:35:23;;;;;;;27.47;16.27;;;;;;;9.99;59.61;97004.69;5024326;28;20422;-86
2021/03/24 09:37:57;;;;;;;32.83;16.77;;;;;;;9.87;60.10;97011.50;5024037;28;20762;-86
2021/03/24 09:40:32;;;;;;;38.53;19.37;;;;;;;10.04;59.76;97004.56;5021363;28;20429;-87
2021/03/24 09:43:00;;;;;;;24.53;16.20;;;;;;;10.08;59.27;97010.38;5022922;28;20475;-86
2021/03/24 09:45:29;;;;;;;24.10;16.83;;;;;;;10.00;59.47;97014.19;5021318;28;20519;-86
2021/03/24 09:48:06;;;;;;;27.07;16.13;;;;;;;10.26;59.90;97003.41;5020797;28;20430;-86
2021/03/24 09:50:40;;;;;;;25.40;16.53;;;;;;;10.41;58.97;96997.47;5020920;28;20534;-85
2021/03/24 09:53:13;;;;;;;31.50;17.20;;;;;;;10.58;58.61;97003.25;5021993;28;21002;-85
2021/03/24 09:55:41;;;;;;;23.90;16.17;;;;;;;10.55;58.11;96990.78;5021836;28;20509;-86
2021/03/24 09:58:43;;;;;;;26.67;16.10;;;;;;;10.58;57.75;96993.19;5022091;28;20515;-86
2021/03/24 10:01:32;;;;;;;22.97;14.87;;;;;;;10.53;57.75;96996.69;4992256;28;20507;-87
2021/03/24 10:04:14;;;;;;;30.13;15.40;;;;;;;10.55;58.25;96985.41;5020917;28;20419;-86
2021/03/24 10:06:51;;;;;;;31.40;14.80;;;;;;;10.45;58.73;96992.47;5021629;28;20411;-87
2021/03/24 10:09:25;;;;;;;23.10;16.10;;;;;;;10.48;58.43;96992.16;5023048;28;20551;-85
2021/03/24 10:12:04;;;;;;;29.43;15.30;;;;;;;10.38;58.61;96982.31;5021745;28;20473;-85
2021/03/24 10:14:36;;;;;;;27.07;15.70;;;;;;;10.57;58.09;96989.00;5021586;28;20446;-86
2021/03/24 10:17:08;;;;;;;23.63;15.00;;;;;;;10.60;57.84;96982.56;5021969;28;20411;-87
2021/03/24 10:19:39;;;;;;;25.30;14.07;;;;;;;10.55;58.53;96980.72;5022686;28;20459;-87
2021/03/24 10:22:15;;;;;;;27.03;14.53;;;;;;;10.53;58.01;96985.19;5023362;28;20421;-87
2021/03/24 10:24:44;;;;;;;25.43;14.27;;;;;;;10.62;58.58;96982.03;5020842;28;20848;-86
2021/03/24 10:27:12;;;;;;;21.17;13.83;;;;;;;10.82;57.87;96988.72;5022641;28;20420;-87
2021/03/24 10:29:43;;;;;;;24.80;14.63;;;;;;;11.08;57.86;96983.19;5021916;28;20508;-88
2021/03/24 10:32:22;;;;;;;36.93;13.80;;;;;;;11.21;56.36;96977.72;5022762;28;20483;-88
2021/03/24 10:34:52;;;;;;;26.07;14.07;;;;;;;10.91;56.64;96964.69;5021888;28;20503;-87
2021/03/24 10:37:30;;;;;;;23.30;12.53;;;;;;;11.19;56.59;96964.72;5022285;28;20520;-87
2021/03/24 10:40:01;;;;;;;25.83;15.20;;;;;;;11.12;56.37;96956.59;5022772;28;20494;-87
2021/03/24 10:42:33;;;;;;;21.87;13.70;;;;;;;11.20;56.28;96952.69;5021946;28;20508;-88
2021/03/24 10:45:04;;;;;;;25.50;15.63;;;;;;;11.10;57.38;96953.66;5021715;28;20401;-87
2021/03/24 10:47:37;;;;;;;25.20;14.40;;;;;;;11.26;57.33;96953.25;5021366;28;20504;-86
2021/03/24 10:50:18;;;;;;;22.93;14.50;;;;;;;11.37;55.45;96952.25;5020438;28;20437;-87
2021/03/24 10:53:01;;;;;;;21.83;13.10;;;;;;;11.35;55.63;96949.34;5021396;28;20464;-87
2021/03/24 10:55:29;;;;;;;25.33;13.60;;;;;;;11.44;55.54;96943.47;5019329;28;20448;-87
2021/03/24 10:58:05;;;;;;;26.00;13.37;;;;;;;11.48;55.33;96940.44;5019437;28;20448;-87
2021/03/24 11:00:34;;;;;;;19.27;13.53;;;;;;;11.41;56.23;96949.19;5024928;28;20452;-87
2021/03/24 11:03:11;;;;;;;21.13;11.70;;;;;;;11.58;55.04;96944.09;5023396;28;20539;-87
2021/03/24 11:05:43;;;;;;;23.40;11.93;;;;;;;11.66;55.05;96953.69;5021772;28;20971;-88
2021/03/24 11:08:27;;;;;;;25.80;13.20;;;;;;;11.82;53.01;96949.84;5021978;28;20496;-87
2021/03/24 11:10:58;;;;;;;19.70;13.63;;;;;;;11.76;53.67;96938.44;5022127;28;20856;-88
2021/03/24 11:13:31;;;;;;;20.70;11.77;;;;;;;11.89;54.19;96939.59;5021571;28;20553;-88
2021/03/24 11:16:26;;;;;;;21.07;11.63;;;;;;;12.11;53.88;96928.13;5019981;28;20424;-87
2021/03/24 11:18:56;;;;;;;22.63;12.37;;;;;;;12.25;52.93;96924.03;5009353;28;20850;-87
2021/03/24 11:21:34;;;;;;;18.20;12.73;;;;;;;12.21;53.38;96927.09;5021346;28;20863;-86
2021/03/24 11:24:12;;;;;;;22.30;12.30;;;;;;;12.35;52.18;96919.53;5020600;28;20464;-86
2021/03/24 11:26:55;;;;;;;21.47;13.10;;;;;;;12.36;52.25;96921.00;5021242;28;20515;-87
2021/03/24 11:29:24;;;;;;;23.90;12.87;;;;;;;12.50;53.06;96924.97;5020942;28;21000;-87
2021/03/24 11:32:00;;;;;;;16.80;11.80;;;;;;;12.73;52.84;96917.63;5020132;28;20511;-87
2021/03/24 11:34:32;;;;;;;20.63;13.30;;;;;;;12.75;51.96;96920.50;5022317;28;20451;-87
2021/03/24 11:37:04;;;;;;;21.40;13.70;;;;;;;12.83;52.02;96917.81;5024789;28;20508;-87
2021/03/24 11:39:39;;;;;;;20.57;13.70;;;;;;;12.46;52.39;96918.50;5020752;28;20456;-87
2021/03/24 11:42:11;;;;;;;23.03;14.53;;;;;;;12.29;53.58;96914.31;5021003;28;20454;-88
2021/03/24 11:44:38;;;;;;;19.63;12.90;;;;;;;12.11;54.19;96912.63;5022074;28;20490;-87
2021/03/24 11:47:15;;;;;;;23.60;14.73;;;;;;;12.05;53.46;96912.06;5021135;28;20432;-87
2021/03/24 11:49:50;;;;;;;23.07;12.97;;;;;;;11.96;53.86;96917.25;5021070;28;20551;-86
2021/03/24 11:52:31;;;;;;;19.70;12.90;;;;;;;12.08;53.18;96907.56;5021968;28;20460;-88
2021/03/24 11:55:13;;;;;;;26.50;13.20;;;;;;;12.28;53.20;96909.41;5021086;28;20416;-87
2021/03/24 11:57:55;;;;;;;21.13;13.40;;;;;;;12.18;54.03;96911.22;5020748;28;20581;-87
2021/03/24 12:00:33;;;;;;;22.53;13.37;;;;;;;12.18;54.13;96911.22;5020509;28;20451;-88
2021/03/24 12:03:14;;;;;;;25.80;14.30;;;;;;;12.05;53.96;96917.47;5024478;28;20955;-88